sensor_id;sensor_type;location;lat;lon;timestamp;P1;durP1;ratioP1;P2;durP2;ratioP2
2994;SDS011;35277;49.890;8.222;2023-07-30T00:00:05;1.00;;;0.47;;
2994;SDS011;35277;49.890;8.222;2023-07-30T00:02:37;1.00;;;0.60;;
2994;SDS011;35277;49.890;8.222;2023-07-30T00:05:05;1.00;;;0.50;;
2994;SDS011;35277;49.890;8.222;2023-07-30T00:07:34;2.60;;;0.97;;
2994;SDS011;35277;49.890;8.222;2023-07-30T00:10:02;1.00;;;0.40;;
2994;SDS011;35277;49.890;8.222;2023-07-30T00:12:30;1.00;;;0.50;;
2994;SDS011;35277;49.890;8.222;2023-07-30T00:14:58;0.90;;;0.30;;
2994;SDS011;35277;49.890;8.222;2023-07-30T00:17:26;1.10;;;0.60;;
2994;SDS011;35277;49.890;8.222;2023-07-30T00:19:53;1.43;;;0.97;;
2994;SDS011;35277;49.890;8.222;2023-07-30T00:22:21;1.00;;;0.67;;
2994;SDS011;35277;49.890;8.222;2023-07-30T00:24:51;0.90;;;0.40;;
2994;SDS011;35277;49.890;8.222;2023-07-30T00:27:18;0.90;;;0.40;;
2994;SDS011;35277;49.890;8.222;2023-07-30T00:29:49;1.00;;;0.40;;
2994;SDS011;35277;49.890;8.222;2023-07-30T00:32:17;1.10;;;0.60;;
2994;SDS011;35277;49.890;8.222;2023-07-30T00:34:45;0.90;;;0.40;;
2994;SDS011;35277;49.890;8.222;2023-07-30T00:37:12;0.90;;;0.30;;
2994;SDS011;35277;49.890;8.222;2023-07-30T00:39:40;0.90;;;0.33;;
2994;SDS011;35277;49.890;8.222;2023-07-30T00:42:09;2.93;;;0.60;;
2994;SDS011;35277;49.890;8.222;2023-07-30T00:44:37;0.90;;;0.30;;
2994;SDS011;35277;49.890;8.222;2023-07-30T00:47:05;1.10;;;0.60;;
2994;SDS011;35277;49.890;8.222;2023-07-30T00:49:33;1.00;;;0.47;;
2994;SDS011;35277;49.890;8.222;2023-07-30T00:52:01;1.30;;;0.80;;
2994;SDS011;35277;49.890;8.222;2023-07-30T00:54:30;1.00;;;0.40;;
2994;SDS011;35277;49.890;8.222;2023-07-30T00:56:58;0.90;;;0.30;;
2994;SDS011;35277;49.890;8.222;2023-07-30T00:59:28;0.90;;;0.40;;
2994;SDS011;35277;49.890;8.222;2023-07-30T01:01:56;1.00;;;0.60;;
2994;SDS011;35277;49.890;8.222;2023-07-30T01:04:26;0.97;;;0.40;;
2994;SDS011;35277;49.890;8.222;2023-07-30T01:06:54;1.40;;;0.83;;
2994;SDS011;35277;49.890;8.222;2023-07-30T01:09:22;0.90;;;0.30;;
2994;SDS011;35277;49.890;8.222;2023-07-30T01:11:52;0.93;;;0.37;;
2994;SDS011;35277;49.890;8.222;2023-07-30T01:14:21;0.90;;;0.30;;
2994;SDS011;35277;49.890;8.222;2023-07-30T01:16:53;0.90;;;0.30;;
2994;SDS011;35277;49.890;8.222;2023-07-30T01:19:21;0.90;;;0.33;;
2994;SDS011;35277;49.890;8.222;2023-07-30T01:21:50;2.43;;;1.07;;
2994;SDS011;35277;49.890;8.222;2023-07-30T01:24:18;1.00;;;0.43;;
2994;SDS011;35277;49.890;8.222;2023-07-30T01:26:48;1.10;;;0.70;;
2994;SDS011;35277;49.890;8.222;2023-07-30T01:29:22;1.00;;;0.57;;
2994;SDS011;35277;49.890;8.222;2023-07-30T01:31:56;1.00;;;0.40;;
2994;SDS011;35277;49.890;8.222;2023-07-30T01:34:27;0.90;;;0.30;;
2994;SDS011;35277;49.890;8.222;2023-07-30T01:36:57;1.10;;;0.53;;
2994;SDS011;35277;49.890;8.222;2023-07-30T01:39:26;0.93;;;0.40;;
2994;SDS011;35277;49.890;8.222;2023-07-30T01:41:54;0.97;;;0.37;;
2994;SDS011;35277;49.890;8.222;2023-07-30T01:44:22;1.93;;;0.73;;
2994;SDS011;35277;49.890;8.222;2023-07-30T01:46:50;0.90;;;0.30;;
2994;SDS011;35277;49.890;8.222;2023-07-30T01:49:18;0.90;;;0.30;;
2994;SDS011;35277;49.890;8.222;2023-07-30T01:51:45;1.57;;;0.50;;
2994;SDS011;35277;49.890;8.222;2023-07-30T01:54:15;0.90;;;0.40;;
2994;SDS011;35277;49.890;8.222;2023-07-30T01:56:43;0.90;;;0.30;;
2994;SDS011;35277;49.890;8.222;2023-07-30T01:59:10;1.50;;;0.73;;
2994;SDS011;35277;49.890;8.222;2023-07-30T02:01:38;1.00;;;0.40;;
2994;SDS011;35277;49.890;8.222;2023-07-30T02:04:07;1.73;;;1.53;;
2994;SDS011;35277;49.890;8.222;2023-07-30T02:06:35;0.90;;;0.40;;
2994;SDS011;35277;49.890;8.222;2023-07-30T02:09:03;1.10;;;0.40;;
2994;SDS011;35277;49.890;8.222;2023-07-30T02:11:32;5.63;;;0.60;;
2994;SDS011;35277;49.890;8.222;2023-07-30T02:14:00;0.90;;;0.37;;
2994;SDS011;35277;49.890;8.222;2023-07-30T02:16:28;2.17;;;0.97;;
2994;SDS011;35277;49.890;8.222;2023-07-30T02:18:56;1.00;;;0.53;;
2994;SDS011;35277;49.890;8.222;2023-07-30T02:21:24;2.70;;;1.17;;
2994;SDS011;35277;49.890;8.222;2023-07-30T02:23:52;1.00;;;0.40;;
2994;SDS011;35277;49.890;8.222;2023-07-30T02:26:19;0.90;;;0.50;;
2994;SDS011;35277;49.890;8.222;2023-07-30T02:28:49;1.47;;;0.60;;
2994;SDS011;35277;49.890;8.222;2023-07-30T02:31:16;0.93;;;0.30;;
2994;SDS011;35277;49.890;8.222;2023-07-30T02:33:44;1.00;;;0.40;;
2994;SDS011;35277;49.890;8.222;2023-07-30T02:36:12;0.90;;;0.33;;
2994;SDS011;35277;49.890;8.222;2023-07-30T02:38:40;0.90;;;0.30;;
2994;SDS011;35277;49.890;8.222;2023-07-30T02:41:08;1.00;;;0.40;;
2994;SDS011;35277;49.890;8.222;2023-07-30T02:43:36;0.90;;;0.37;;
2994;SDS011;35277;49.890;8.222;2023-07-30T02:46:05;0.90;;;0.30;;
2994;SDS011;35277;49.890;8.222;2023-07-30T02:48:33;1.20;;;0.80;;
2994;SDS011;35277;49.890;8.222;2023-07-30T02:51:01;0.93;;;0.40;;
2994;SDS011;35277;49.890;8.222;2023-07-30T02:53:29;0.90;;;0.30;;
2994;SDS011;35277;49.890;8.222;2023-07-30T02:55:57;1.00;;;0.40;;
2994;SDS011;35277;49.890;8.222;2023-07-30T02:58:25;0.90;;;0.40;;
2994;SDS011;35277;49.890;8.222;2023-07-30T03:00:52;0.90;;;0.40;;
2994;SDS011;35277;49.890;8.222;2023-07-30T03:03:22;1.83;;;0.50;;
2994;SDS011;35277;49.890;8.222;2023-07-30T03:05:50;1.10;;;0.57;;
2994;SDS011;35277;49.890;8.222;2023-07-30T03:08:17;0.90;;;0.40;;
2994;SDS011;35277;49.890;8.222;2023-07-30T03:10:45;1.03;;;0.47;;
2994;SDS011;35277;49.890;8.222;2023-07-30T03:13:13;1.00;;;0.40;;
2994;SDS011;35277;49.890;8.222;2023-07-30T03:15:41;0.90;;;0.40;;
2994;SDS011;35277;49.890;8.222;2023-07-30T03:18:08;0.90;;;0.40;;
2994;SDS011;35277;49.890;8.222;2023-07-30T03:20:38;0.93;;;0.33;;
2994;SDS011;35277;49.890;8.222;2023-07-30T03:23:05;0.97;;;0.40;;
2994;SDS011;35277;49.890;8.222;2023-07-30T03:25:33;1.00;;;0.47;;
2994;SDS011;35277;49.890;8.222;2023-07-30T03:28:01;1.83;;;0.93;;
2994;SDS011;35277;49.890;8.222;2023-07-30T03:30:29;1.70;;;0.60;;
2994;SDS011;35277;49.890;8.222;2023-07-30T03:32:57;0.90;;;0.30;;
2994;SDS011;35277;49.890;8.222;2023-07-30T03:35:25;1.00;;;0.50;;
2994;SDS011;35277;49.890;8.222;2023-07-30T03:37:54;0.90;;;0.40;;
2994;SDS011;35277;49.890;8.222;2023-07-30T03:40:22;0.90;;;0.30;;
2994;SDS011;35277;49.890;8.222;2023-07-30T03:42:51;0.97;;;0.47;;
2994;SDS011;35277;49.890;8.222;2023-07-30T03:45:20;0.90;;;0.30;;
2994;SDS011;35277;49.890;8.222;2023-07-30T03:47:48;0.93;;;0.40;;
2994;SDS011;35277;49.890;8.222;2023-07-30T03:50:16;0.90;;;0.30;;
2994;SDS011;35277;49.890;8.222;2023-07-30T03:52:46;0.90;;;0.40;;
2994;SDS011;35277;49.890;8.222;2023-07-30T03:55:15;1.00;;;0.40;;
2994;SDS011;35277;49.890;8.222;2023-07-30T03:57:43;0.90;;;0.30;;
2994;SDS011;35277;49.890;8.222;2023-07-30T04:00:11;0.97;;;0.40;;
2994;SDS011;35277;49.890;8.222;2023-07-30T04:02:39;0.90;;;0.33;;
2994;SDS011;35277;49.890;8.222;2023-07-30T04:05:07;0.90;;;0.30;;
2994;SDS011;35277;49.890;8.222;2023-07-30T04:07:36;0.90;;;0.30;;
2994;SDS011;35277;49.890;8.222;2023-07-30T04:10:06;1.40;;;0.90;;
2994;SDS011;35277;49.890;8.222;2023-07-30T04:12:36;0.90;;;0.30;;
2994;SDS011;35277;49.890;8.222;2023-07-30T04:15:04;0.93;;;0.33;;
2994;SDS011;35277;49.890;8.222;2023-07-30T04:17:34;0.90;;;0.40;;
2994;SDS011;35277;49.890;8.222;2023-07-30T04:20:04;0.90;;;0.30;;
2994;SDS011;35277;49.890;8.222;2023-07-30T04:22:33;1.20;;;0.70;;
2994;SDS011;35277;49.890;8.222;2023-07-30T04:25:01;0.93;;;0.30;;
2994;SDS011;35277;49.890;8.222;2023-07-30T04:27:29;1.23;;;0.53;;
2994;SDS011;35277;49.890;8.222;2023-07-30T04:30:01;1.30;;;0.73;;
2994;SDS011;35277;49.890;8.222;2023-07-30T04:32:30;0.97;;;0.30;;
2994;SDS011;35277;49.890;8.222;2023-07-30T04:34:58;1.00;;;0.40;;
2994;SDS011;35277;49.890;8.222;2023-07-30T04:37:27;0.90;;;0.30;;
2994;SDS011;35277;49.890;8.222;2023-07-30T04:39:54;1.00;;;0.50;;
2994;SDS011;35277;49.890;8.222;2023-07-30T04:42:26;0.97;;;0.40;;
2994;SDS011;35277;49.890;8.222;2023-07-30T04:44:54;0.90;;;0.40;;
2994;SDS011;35277;49.890;8.222;2023-07-30T04:47:23;0.97;;;0.40;;
2994;SDS011;35277;49.890;8.222;2023-07-30T04:49:51;1.00;;;0.40;;
2994;SDS011;35277;49.890;8.222;2023-07-30T04:52:19;0.90;;;0.30;;
2994;SDS011;35277;49.890;8.222;2023-07-30T04:54:47;1.30;;;0.77;;
2994;SDS011;35277;49.890;8.222;2023-07-30T04:57:15;0.90;;;0.37;;
2994;SDS011;35277;49.890;8.222;2023-07-30T04:59:43;1.03;;;0.70;;
2994;SDS011;35277;49.890;8.222;2023-07-30T05:02:11;1.73;;;0.73;;
2994;SDS011;35277;49.890;8.222;2023-07-30T05:04:40;1.00;;;0.40;;
2994;SDS011;35277;49.890;8.222;2023-07-30T05:07:08;0.90;;;0.40;;
2994;SDS011;35277;49.890;8.222;2023-07-30T05:09:35;0.90;;;0.30;;
2994;SDS011;35277;49.890;8.222;2023-07-30T05:12:04;1.37;;;0.43;;
2994;SDS011;35277;49.890;8.222;2023-07-30T05:14:32;1.00;;;0.40;;
2994;SDS011;35277;49.890;8.222;2023-07-30T05:16:59;0.90;;;0.40;;
2994;SDS011;35277;49.890;8.222;2023-07-30T05:19:27;0.90;;;0.30;;
2994;SDS011;35277;49.890;8.222;2023-07-30T05:21:56;1.00;;;0.50;;
2994;SDS011;35277;49.890;8.222;2023-07-30T05:24:25;0.90;;;0.30;;
2994;SDS011;35277;49.890;8.222;2023-07-30T05:26:53;0.90;;;0.37;;
2994;SDS011;35277;49.890;8.222;2023-07-30T05:29:21;1.00;;;0.40;;
2994;SDS011;35277;49.890;8.222;2023-07-30T05:31:48;1.10;;;0.53;;
2994;SDS011;35277;49.890;8.222;2023-07-30T05:34:16;0.90;;;0.30;;
2994;SDS011;35277;49.890;8.222;2023-07-30T05:36:44;1.00;;;0.57;;
2994;SDS011;35277;49.890;8.222;2023-07-30T05:39:13;0.90;;;0.30;;
2994;SDS011;35277;49.890;8.222;2023-07-30T05:41:41;1.70;;;1.60;;
2994;SDS011;35277;49.890;8.222;2023-07-30T05:44:09;0.90;;;0.30;;
2994;SDS011;35277;49.890;8.222;2023-07-30T05:46:37;0.90;;;0.30;;
2994;SDS011;35277;49.890;8.222;2023-07-30T05:49:05;0.90;;;0.30;;
2994;SDS011;35277;49.890;8.222;2023-07-30T05:51:32;2.23;;;0.97;;
2994;SDS011;35277;49.890;8.222;2023-07-30T05:54:00;1.40;;;0.80;;
2994;SDS011;35277;49.890;8.222;2023-07-30T05:56:29;0.90;;;0.40;;
2994;SDS011;35277;49.890;8.222;2023-07-30T05:58:57;1.40;;;0.73;;
2994;SDS011;35277;49.890;8.222;2023-07-30T06:01:25;1.00;;;0.50;;
2994;SDS011;35277;49.890;8.222;2023-07-30T06:03:53;0.90;;;0.33;;
2994;SDS011;35277;49.890;8.222;2023-07-30T06:06:21;1.47;;;1.03;;
2994;SDS011;35277;49.890;8.222;2023-07-30T06:08:53;1.10;;;0.70;;
2994;SDS011;35277;49.890;8.222;2023-07-30T06:11:21;1.10;;;0.80;;
2994;SDS011;35277;49.890;8.222;2023-07-30T06:13:50;1.00;;;0.50;;
2994;SDS011;35277;49.890;8.222;2023-07-30T06:16:18;1.00;;;0.40;;
2994;SDS011;35277;49.890;8.222;2023-07-30T06:18:47;1.00;;;0.40;;
2994;SDS011;35277;49.890;8.222;2023-07-30T06:21:15;1.00;;;0.50;;
2994;SDS011;35277;49.890;8.222;2023-07-30T06:23:42;4.20;;;0.87;;
2994;SDS011;35277;49.890;8.222;2023-07-30T06:26:10;0.90;;;0.30;;
2994;SDS011;35277;49.890;8.222;2023-07-30T06:28:38;1.00;;;0.50;;
2994;SDS011;35277;49.890;8.222;2023-07-30T06:31:07;0.90;;;0.30;;
2994;SDS011;35277;49.890;8.222;2023-07-30T06:33:35;0.90;;;0.40;;
2994;SDS011;35277;49.890;8.222;2023-07-30T06:36:03;1.53;;;0.80;;
2994;SDS011;35277;49.890;8.222;2023-07-30T06:38:31;0.90;;;0.30;;
2994;SDS011;35277;49.890;8.222;2023-07-30T06:41:02;0.90;;;0.30;;
2994;SDS011;35277;49.890;8.222;2023-07-30T06:43:30;1.00;;;0.60;;
2994;SDS011;35277;49.890;8.222;2023-07-30T06:45:58;0.90;;;0.30;;
2994;SDS011;35277;49.890;8.222;2023-07-30T06:48:27;1.57;;;0.57;;
2994;SDS011;35277;49.890;8.222;2023-07-30T06:50:55;1.20;;;0.70;;
2994;SDS011;35277;49.890;8.222;2023-07-30T06:53:23;1.00;;;0.63;;
2994;SDS011;35277;49.890;8.222;2023-07-30T06:55:51;1.43;;;0.57;;
2994;SDS011;35277;49.890;8.222;2023-07-30T06:58:19;0.90;;;0.40;;
2994;SDS011;35277;49.890;8.222;2023-07-30T07:00:47;2.93;;;2.53;;
2994;SDS011;35277;49.890;8.222;2023-07-30T07:03:15;1.00;;;0.40;;
2994;SDS011;35277;49.890;8.222;2023-07-30T07:05:44;0.90;;;0.30;;
2994;SDS011;35277;49.890;8.222;2023-07-30T07:08:12;2.80;;;0.63;;
2994;SDS011;35277;49.890;8.222;2023-07-30T07:10:40;1.00;;;0.53;;
2994;SDS011;35277;49.890;8.222;2023-07-30T07:13:07;0.90;;;0.30;;
2994;SDS011;35277;49.890;8.222;2023-07-30T07:15:39;0.90;;;0.40;;
2994;SDS011;35277;49.890;8.222;2023-07-30T07:18:07;2.83;;;1.80;;
2994;SDS011;35277;49.890;8.222;2023-07-30T07:20:34;0.90;;;0.33;;
2994;SDS011;35277;49.890;8.222;2023-07-30T07:23:04;1.20;;;0.87;;
2994;SDS011;35277;49.890;8.222;2023-07-30T07:25:32;1.00;;;0.50;;
2994;SDS011;35277;49.890;8.222;2023-07-30T07:28:00;1.00;;;0.40;;
2994;SDS011;35277;49.890;8.222;2023-07-30T07:30:28;1.00;;;0.60;;
2994;SDS011;35277;49.890;8.222;2023-07-30T07:32:55;0.90;;;0.40;;
2994;SDS011;35277;49.890;8.222;2023-07-30T07:35:23;0.93;;;0.40;;
2994;SDS011;35277;49.890;8.222;2023-07-30T07:37:51;1.00;;;0.37;;
2994;SDS011;35277;49.890;8.222;2023-07-30T07:40:20;1.10;;;0.73;;
2994;SDS011;35277;49.890;8.222;2023-07-30T07:42:48;0.90;;;0.40;;
2994;SDS011;35277;49.890;8.222;2023-07-30T07:45:16;1.00;;;0.50;;
2994;SDS011;35277;49.890;8.222;2023-07-30T07:47:44;0.90;;;0.30;;
2994;SDS011;35277;49.890;8.222;2023-07-30T07:50:12;0.90;;;0.30;;
2994;SDS011;35277;49.890;8.222;2023-07-30T07:52:42;1.93;;;0.80;;
2994;SDS011;35277;49.890;8.222;2023-07-30T07:55:09;1.00;;;0.70;;
2994;SDS011;35277;49.890;8.222;2023-07-30T07:57:38;1.00;;;0.50;;
2994;SDS011;35277;49.890;8.222;2023-07-30T08:00:07;0.90;;;0.40;;
2994;SDS011;35277;49.890;8.222;2023-07-30T08:02:40;1.00;;;0.50;;
2994;SDS011;35277;49.890;8.222;2023-07-30T08:05:08;1.00;;;0.60;;
2994;SDS011;35277;49.890;8.222;2023-07-30T08:07:35;0.90;;;0.40;;
2994;SDS011;35277;49.890;8.222;2023-07-30T08:10:03;1.00;;;0.60;;
2994;SDS011;35277;49.890;8.222;2023-07-30T08:12:32;1.30;;;0.50;;
2994;SDS011;35277;49.890;8.222;2023-07-30T08:15:01;0.90;;;0.40;;
2994;SDS011;35277;49.890;8.222;2023-07-30T08:17:29;2.50;;;1.23;;
2994;SDS011;35277;49.890;8.222;2023-07-30T08:19:57;1.00;;;0.40;;
2994;SDS011;35277;49.890;8.222;2023-07-30T08:22:25;1.10;;;0.60;;
2994;SDS011;35277;49.890;8.222;2023-07-30T08:24:52;1.50;;;1.20;;
2994;SDS011;35277;49.890;8.222;2023-07-30T08:27:20;2.83;;;1.70;;
2994;SDS011;35277;49.890;8.222;2023-07-30T08:29:48;1.37;;;1.03;;
2994;SDS011;35277;49.890;8.222;2023-07-30T08:32:17;0.90;;;0.30;;
2994;SDS011;35277;49.890;8.222;2023-07-30T08:34:45;1.10;;;0.57;;
2994;SDS011;35277;49.890;8.222;2023-07-30T08:37:13;0.90;;;0.30;;
2994;SDS011;35277;49.890;8.222;2023-07-30T08:39:41;1.00;;;0.50;;
2994;SDS011;35277;49.890;8.222;2023-07-30T08:42:08;1.00;;;0.40;;
2994;SDS011;35277;49.890;8.222;2023-07-30T08:44:36;0.90;;;0.30;;
2994;SDS011;35277;49.890;8.222;2023-07-30T08:47:04;1.00;;;0.40;;
2994;SDS011;35277;49.890;8.222;2023-07-30T08:49:33;1.37;;;0.50;;
2994;SDS011;35277;49.890;8.222;2023-07-30T08:52:01;1.20;;;0.70;;
2994;SDS011;35277;49.890;8.222;2023-07-30T08:54:30;9.50;;;1.23;;
2994;SDS011;35277;49.890;8.222;2023-07-30T08:56:58;1.07;;;0.67;;
2994;SDS011;35277;49.890;8.222;2023-07-30T08:59:28;1.93;;;1.73;;
2994;SDS011;35277;49.890;8.222;2023-07-30T09:02:00;1.17;;;0.73;;
2994;SDS011;35277;49.890;8.222;2023-07-30T09:04:28;1.00;;;0.63;;
2994;SDS011;35277;49.890;8.222;2023-07-30T09:07:02;1.03;;;0.43;;
2994;SDS011;35277;49.890;8.222;2023-07-30T09:09:31;1.00;;;0.40;;
2994;SDS011;35277;49.890;8.222;2023-07-30T09:11:58;1.10;;;0.70;;
2994;SDS011;35277;49.890;8.222;2023-07-30T09:14:27;1.10;;;0.67;;
2994;SDS011;35277;49.890;8.222;2023-07-30T09:16:56;1.00;;;0.43;;
2994;SDS011;35277;49.890;8.222;2023-07-30T09:19:24;1.10;;;0.60;;
2994;SDS011;35277;49.890;8.222;2023-07-30T09:21:53;1.30;;;0.90;;
2994;SDS011;35277;49.890;8.222;2023-07-30T09:24:22;1.27;;;0.63;;
2994;SDS011;35277;49.890;8.222;2023-07-30T09:26:50;1.00;;;0.40;;
2994;SDS011;35277;49.890;8.222;2023-07-30T09:29:18;1.00;;;0.43;;
2994;SDS011;35277;49.890;8.222;2023-07-30T09:31:46;0.90;;;0.30;;
2994;SDS011;35277;49.890;8.222;2023-07-30T09:34:15;0.90;;;0.30;;
2994;SDS011;35277;49.890;8.222;2023-07-30T09:36:44;0.90;;;0.30;;
2994;SDS011;35277;49.890;8.222;2023-07-30T09:39:16;0.90;;;0.33;;
2994;SDS011;35277;49.890;8.222;2023-07-30T09:41:48;1.00;;;0.37;;
2994;SDS011;35277;49.890;8.222;2023-07-30T09:44:17;2.10;;;2.00;;
2994;SDS011;35277;49.890;8.222;2023-07-30T09:46:45;1.00;;;0.50;;
2994;SDS011;35277;49.890;8.222;2023-07-30T09:49:14;0.93;;;0.40;;
2994;SDS011;35277;49.890;8.222;2023-07-30T09:51:43;0.90;;;0.30;;
2994;SDS011;35277;49.890;8.222;2023-07-30T09:54:11;1.00;;;0.37;;
2994;SDS011;35277;49.890;8.222;2023-07-30T09:56:41;1.10;;;0.40;;
2994;SDS011;35277;49.890;8.222;2023-07-30T09:59:10;1.00;;;0.60;;
2994;SDS011;35277;49.890;8.222;2023-07-30T10:01:40;0.90;;;0.30;;
2994;SDS011;35277;49.890;8.222;2023-07-30T10:04:11;1.00;;;0.50;;
2994;SDS011;35277;49.890;8.222;2023-07-30T10:06:40;0.90;;;0.30;;
2994;SDS011;35277;49.890;8.222;2023-07-30T10:09:11;0.90;;;0.30;;
2994;SDS011;35277;49.890;8.222;2023-07-30T10:11:41;1.00;;;0.30;;
2994;SDS011;35277;49.890;8.222;2023-07-30T10:14:13;0.90;;;0.30;;
2994;SDS011;35277;49.890;8.222;2023-07-30T10:16:49;1.00;;;0.40;;
2994;SDS011;35277;49.890;8.222;2023-07-30T10:19:18;2.23;;;1.43;;
2994;SDS011;35277;49.890;8.222;2023-07-30T10:21:49;1.00;;;0.40;;
2994;SDS011;35277;49.890;8.222;2023-07-30T10:24:18;0.97;;;0.30;;
2994;SDS011;35277;49.890;8.222;2023-07-30T10:26:45;0.93;;;0.30;;
2994;SDS011;35277;49.890;8.222;2023-07-30T10:29:15;0.90;;;0.30;;
2994;SDS011;35277;49.890;8.222;2023-07-30T10:31:47;1.00;;;0.40;;
2994;SDS011;35277;49.890;8.222;2023-07-30T10:34:18;2.53;;;1.23;;
2994;SDS011;35277;49.890;8.222;2023-07-30T10:36:47;1.00;;;0.40;;
2994;SDS011;35277;49.890;8.222;2023-07-30T10:39:17;0.90;;;0.40;;
2994;SDS011;35277;49.890;8.222;2023-07-30T10:41:48;1.00;;;0.60;;
2994;SDS011;35277;49.890;8.222;2023-07-30T10:44:19;0.90;;;0.40;;
2994;SDS011;35277;49.890;8.222;2023-07-30T10:46:50;1.70;;;0.50;;
2994;SDS011;35277;49.890;8.222;2023-07-30T10:49:18;0.93;;;0.40;;
2994;SDS011;35277;49.890;8.222;2023-07-30T10:51:46;2.60;;;1.53;;
2994;SDS011;35277;49.890;8.222;2023-07-30T10:54:14;12.10;;;10.87;;
2994;SDS011;35277;49.890;8.222;2023-07-30T10:56:42;12.87;;;11.57;;
2994;SDS011;35277;49.890;8.222;2023-07-30T10:59:11;9.40;;;6.40;;
2994;SDS011;35277;49.890;8.222;2023-07-30T11:01:41;4.80;;;4.40;;
2994;SDS011;35277;49.890;8.222;2023-07-30T11:04:11;14.47;;;5.57;;
2994;SDS011;35277;49.890;8.222;2023-07-30T11:06:44;1.00;;;0.40;;
2994;SDS011;35277;49.890;8.222;2023-07-30T11:09:17;1.20;;;0.70;;
2994;SDS011;35277;49.890;8.222;2023-07-30T11:11:47;0.90;;;0.40;;
2994;SDS011;35277;49.890;8.222;2023-07-30T11:14:15;1.00;;;0.40;;
2994;SDS011;35277;49.890;8.222;2023-07-30T11:16:48;0.90;;;0.40;;
2994;SDS011;35277;49.890;8.222;2023-07-30T11:19:17;0.90;;;0.30;;
2994;SDS011;35277;49.890;8.222;2023-07-30T11:21:45;0.90;;;0.30;;
2994;SDS011;35277;49.890;8.222;2023-07-30T11:24:17;0.93;;;0.40;;
2994;SDS011;35277;49.890;8.222;2023-07-30T11:26:44;4.03;;;2.00;;
2994;SDS011;35277;49.890;8.222;2023-07-30T11:29:15;0.90;;;0.30;;
2994;SDS011;35277;49.890;8.222;2023-07-30T11:31:43;1.30;;;0.50;;
2994;SDS011;35277;49.890;8.222;2023-07-30T11:34:13;1.57;;;0.50;;
2994;SDS011;35277;49.890;8.222;2023-07-30T11:36:42;0.90;;;0.30;;
2994;SDS011;35277;49.890;8.222;2023-07-30T11:39:10;1.10;;;0.50;;
2994;SDS011;35277;49.890;8.222;2023-07-30T11:41:38;0.90;;;0.30;;
2994;SDS011;35277;49.890;8.222;2023-07-30T11:44:06;1.00;;;0.30;;
2994;SDS011;35277;49.890;8.222;2023-07-30T11:46:34;1.00;;;0.50;;
2994;SDS011;35277;49.890;8.222;2023-07-30T11:49:12;0.90;;;0.30;;
2994;SDS011;35277;49.890;8.222;2023-07-30T11:51:43;3.73;;;1.03;;
2994;SDS011;35277;49.890;8.222;2023-07-30T11:54:18;0.97;;;0.30;;
2994;SDS011;35277;49.890;8.222;2023-07-30T11:56:47;1.10;;;0.73;;
2994;SDS011;35277;49.890;8.222;2023-07-30T11:59:20;0.90;;;0.40;;
2994;SDS011;35277;49.890;8.222;2023-07-30T12:01:48;0.90;;;0.30;;
2994;SDS011;35277;49.890;8.222;2023-07-30T12:04:18;1.10;;;0.60;;
2994;SDS011;35277;49.890;8.222;2023-07-30T12:06:47;0.97;;;0.40;;
2994;SDS011;35277;49.890;8.222;2023-07-30T12:09:16;0.90;;;0.40;;
2994;SDS011;35277;49.890;8.222;2023-07-30T12:11:48;1.20;;;0.60;;
2994;SDS011;35277;49.890;8.222;2023-07-30T12:14:17;1.00;;;0.33;;
2994;SDS011;35277;49.890;8.222;2023-07-30T12:16:46;1.10;;;0.43;;
2994;SDS011;35277;49.890;8.222;2023-07-30T12:19:14;0.97;;;0.40;;
2994;SDS011;35277;49.890;8.222;2023-07-30T12:21:43;0.90;;;0.30;;
2994;SDS011;35277;49.890;8.222;2023-07-30T12:24:12;1.00;;;0.37;;
2994;SDS011;35277;49.890;8.222;2023-07-30T12:26:40;1.03;;;0.67;;
2994;SDS011;35277;49.890;8.222;2023-07-30T12:29:08;5.50;;;0.57;;
2994;SDS011;35277;49.890;8.222;2023-07-30T12:31:36;1.00;;;0.43;;
2994;SDS011;35277;49.890;8.222;2023-07-30T12:34:04;1.00;;;0.50;;
2994;SDS011;35277;49.890;8.222;2023-07-30T12:36:32;1.20;;;0.50;;
2994;SDS011;35277;49.890;8.222;2023-07-30T12:39:01;1.00;;;0.40;;
2994;SDS011;35277;49.890;8.222;2023-07-30T12:41:29;1.10;;;0.70;;
2994;SDS011;35277;49.890;8.222;2023-07-30T12:43:57;1.10;;;0.50;;
2994;SDS011;35277;49.890;8.222;2023-07-30T12:46:25;0.90;;;0.40;;
2994;SDS011;35277;49.890;8.222;2023-07-30T12:48:56;0.93;;;0.40;;
2994;SDS011;35277;49.890;8.222;2023-07-30T12:51:24;1.23;;;0.90;;
2994;SDS011;35277;49.890;8.222;2023-07-30T12:53:51;0.90;;;0.33;;
2994;SDS011;35277;49.890;8.222;2023-07-30T12:56:21;1.70;;;1.23;;
2994;SDS011;35277;49.890;8.222;2023-07-30T12:58:48;1.93;;;0.60;;
2994;SDS011;35277;49.890;8.222;2023-07-30T13:01:16;0.90;;;0.30;;
2994;SDS011;35277;49.890;8.222;2023-07-30T13:03:44;0.90;;;0.40;;
2994;SDS011;35277;49.890;8.222;2023-07-30T13:06:13;0.90;;;0.30;;
2994;SDS011;35277;49.890;8.222;2023-07-30T13:08:41;1.37;;;0.53;;
2994;SDS011;35277;49.890;8.222;2023-07-30T13:11:09;1.57;;;0.60;;
2994;SDS011;35277;49.890;8.222;2023-07-30T13:13:38;0.90;;;0.30;;
2994;SDS011;35277;49.890;8.222;2023-07-30T13:16:06;1.40;;;0.60;;
2994;SDS011;35277;49.890;8.222;2023-07-30T13:18:34;0.90;;;0.30;;
2994;SDS011;35277;49.890;8.222;2023-07-30T13:21:02;1.00;;;0.50;;
2994;SDS011;35277;49.890;8.222;2023-07-30T13:23:30;1.00;;;0.60;;
2994;SDS011;35277;49.890;8.222;2023-07-30T13:25:59;1.87;;;1.20;;
2994;SDS011;35277;49.890;8.222;2023-07-30T13:28:27;1.00;;;0.40;;
2994;SDS011;35277;49.890;8.222;2023-07-30T13:30:56;1.10;;;0.53;;
2994;SDS011;35277;49.890;8.222;2023-07-30T13:33:24;0.90;;;0.40;;
2994;SDS011;35277;49.890;8.222;2023-07-30T13:35:52;0.93;;;0.40;;
2994;SDS011;35277;49.890;8.222;2023-07-30T13:38:20;1.70;;;0.60;;
2994;SDS011;35277;49.890;8.222;2023-07-30T13:40:48;1.20;;;0.63;;
2994;SDS011;35277;49.890;8.222;2023-07-30T13:43:16;1.00;;;0.40;;
2994;SDS011;35277;49.890;8.222;2023-07-30T13:45:44;1.10;;;0.60;;
2994;SDS011;35277;49.890;8.222;2023-07-30T13:48:13;1.00;;;0.60;;
2994;SDS011;35277;49.890;8.222;2023-07-30T13:50:41;1.87;;;0.67;;
2994;SDS011;35277;49.890;8.222;2023-07-30T13:53:09;0.90;;;0.40;;
2994;SDS011;35277;49.890;8.222;2023-07-30T13:55:38;1.00;;;0.40;;
2994;SDS011;35277;49.890;8.222;2023-07-30T13:58:06;0.90;;;0.30;;
2994;SDS011;35277;49.890;8.222;2023-07-30T14:00:35;1.00;;;0.50;;
2994;SDS011;35277;49.890;8.222;2023-07-30T14:03:03;1.40;;;0.80;;
2994;SDS011;35277;49.890;8.222;2023-07-30T14:05:35;2.20;;;0.90;;
2994;SDS011;35277;49.890;8.222;2023-07-30T14:08:03;0.90;;;0.30;;
2994;SDS011;35277;49.890;8.222;2023-07-30T14:10:31;0.97;;;0.40;;
2994;SDS011;35277;49.890;8.222;2023-07-30T14:12:59;1.50;;;0.77;;
2994;SDS011;35277;49.890;8.222;2023-07-30T14:15:27;1.10;;;0.73;;
2994;SDS011;35277;49.890;8.222;2023-07-30T14:17:54;1.10;;;0.63;;
2994;SDS011;35277;49.890;8.222;2023-07-30T14:20:22;0.90;;;0.30;;
2994;SDS011;35277;49.890;8.222;2023-07-30T14:22:51;2.20;;;2.10;;
2994;SDS011;35277;49.890;8.222;2023-07-30T14:25:20;0.90;;;0.30;;
2994;SDS011;35277;49.890;8.222;2023-07-30T14:27:48;0.90;;;0.30;;
2994;SDS011;35277;49.890;8.222;2023-07-30T14:30:15;0.90;;;0.40;;
2994;SDS011;35277;49.890;8.222;2023-07-30T14:32:43;1.00;;;0.50;;
2994;SDS011;35277;49.890;8.222;2023-07-30T14:35:11;0.93;;;0.30;;
2994;SDS011;35277;49.890;8.222;2023-07-30T14:37:39;1.10;;;0.70;;
2994;SDS011;35277;49.890;8.222;2023-07-30T14:40:09;0.90;;;0.30;;
2994;SDS011;35277;49.890;8.222;2023-07-30T14:42:37;0.90;;;0.40;;
2994;SDS011;35277;49.890;8.222;2023-07-30T14:45:06;0.90;;;0.37;;
2994;SDS011;35277;49.890;8.222;2023-07-30T14:47:35;0.90;;;0.30;;
2994;SDS011;35277;49.890;8.222;2023-07-30T14:50:04;0.90;;;0.40;;
2994;SDS011;35277;49.890;8.222;2023-07-30T14:52:33;1.20;;;0.80;;
2994;SDS011;35277;49.890;8.222;2023-07-30T14:55:01;1.10;;;0.37;;
2994;SDS011;35277;49.890;8.222;2023-07-30T14:57:31;2.23;;;0.80;;
2994;SDS011;35277;49.890;8.222;2023-07-30T14:59:59;1.97;;;0.57;;
2994;SDS011;35277;49.890;8.222;2023-07-30T15:02:27;0.90;;;0.40;;
2994;SDS011;35277;49.890;8.222;2023-07-30T15:04:55;13.43;;;1.60;;
2994;SDS011;35277;49.890;8.222;2023-07-30T15:07:23;1.00;;;0.40;;